Terminal Aerodrome Forecast
Issued by NWS Twin Cities, MN

Home | Current Version | Previous Version | Graphics & Text | Print | Product List | Glossary On
Versions: 1 2 3 4 5 6 7 8 9 10 11 12 13 14
000
FTUS43 KMPX 291739
TAFEAU
TAF
KEAU 291739Z 2918/3018 22016G25KT P6SM OVC012
     FM291900 27020G30KT P6SM SCT012 BKN025
      TEMPO 2919/2922 4SM -RA BR BKN015
     FM292200 30020G30KT P6SM SCT025 SCT100
     FM300200 30013KT P6SM SKC
     FM300600 27007KT P6SM SKC=

USA.gov is the U.S. government's official web portal to all federal, state and local government web resources and services.